Marten — 5BNU3 — position and weather

sailwx.info

Track history (hours):
 
Tides and Currents Weather Stations Pressure Air Temp Water Temp Dewpoint Dewpoint Depression Visibility Wind Speed Wind Dir Waves Ship Positions

Marten

Last reported at 2016-Aug-27 04:33 UTC. Time now 2016-Aug-27 04:43 UTC.
Position N 51°35' E 001°46'.

Length 90 m; draft 4.9 m.

Type: Ship. MMSI: 212376000.

Date/timePositionNaut miles runAvg speedWind from/ knotsBaromVisibWave heightAir tempDewpointWater temp
2016-Aug-27 04:33N 51°35' E 001°46'7 7.4
2016-Aug-27 03:33N 51°31' E 001°37'8 8.0
2016-Aug-27 02:33N 51°29' E 001°24'9 9.4
2016-Aug-27 01:33N 51°29' E 001°09'1010.2
2016-Aug-27 00:33N 51°29' E 000°53'1111.3
2016-Aug-26 23:33N 51°30' E 000°35'9 9.3
2016-Aug-26 22:33N 51°27' E 000°20'0 0.4
2016-Aug-26 21:33N 51°28' E 000°21'0 0.0
2016-Aug-26 20:33N 51°28' E 000°21'0 0.0
2016-Aug-26 19:34N 51°28' E 000°21'0 0.0
2016-Aug-26 18:33N 51°28' E 000°21'0 0.0
2016-Aug-26 17:33N 51°28' E 000°21'0 0.0
2016-Aug-26 16:34N 51°28' E 000°21'0 0.0
2016-Aug-26 15:34N 51°28' E 000°21'0 0.0
2016-Aug-26 14:33N 51°28' E 000°21'0 0.0
2016-Aug-26 13:34N 51°28' E 000°21'0 0.0
2016-Aug-26 12:34N 51°28' E 000°21'0 0.0
2016-Aug-26 11:33N 51°28' E 000°21'0 0.0
2016-Aug-26 10:34N 51°28' E 000°21'0 0.0
2016-Aug-26 09:33N 51°28' E 000°21'0 0.0
2016-Aug-26 08:33N 51°28' E 000°21'0 0.0
2016-Aug-26 07:34N 51°28' E 000°21'0 0.0
2016-Aug-26 06:33N 51°28' E 000°21'0 0.0
2016-Aug-26 04:33N 51°28' E 000°21'0 0.0
2016-Aug-26 03:33N 51°28' E 000°21'0 0.0
2016-Aug-26 02:33N 51°28' E 000°21'0 0.0
2016-Aug-26 01:33N 51°28' E 000°21'0 0.0
2016-Aug-26 00:33N 51°28' E 000°21'0 0.0
2016-Aug-25 23:34N 51°28' E 000°21'0 0.0
2016-Aug-25 22:33N 51°28' E 000°21'0 0.0
2016-Aug-25 21:33N 51°28' E 000°21'0 0.0
2016-Aug-25 20:33N 51°28' E 000°21'0 0.0
2016-Aug-25 19:33N 51°28' E 000°21'0 0.0
2016-Aug-25 18:33N 51°28' E 000°21'1 0.9
2016-Aug-25 17:33N 51°27' E 000°22'8 7.8
2016-Aug-25 16:33N 51°30' E 000°33'9 8.7
2016-Aug-25 15:33N 51°29' E 000°47'7 6.2
2016-Aug-25 14:29N 51°30' E 000°58'0 0.0
2016-Aug-25 13:32N 51°30' E 000°58'0 0.0
2016-Aug-25 12:32N 51°30' E 000°58'0 0.1
2016-Aug-25 11:32N 51°30' E 000°58'0 0.0
2016-Aug-25 10:32N 51°30' E 000°58'0 0.0
2016-Aug-25 09:32N 51°30' E 000°58'0 0.0
2016-Aug-25 08:32N 51°30' E 000°58'0 0.0
2016-Aug-25 07:32N 51°30' E 000°58'0 0.0
2016-Aug-25 06:32N 51°30' E 000°58'0 0.1
2016-Aug-25 04:32N 51°30' E 000°58'0 0.0
2016-Aug-25 03:32N 51°30' E 000°58'0 0.0
2016-Aug-25 02:32N 51°30' E 000°58'0 0.0
2016-Aug-25 01:32N 51°30' E 000°58'0 0.0
2016-Aug-25 00:32N 51°30' E 000°58'0 0.0
2016-Aug-24 23:29N 51°30' E 000°58'0 0.1
2016-Aug-24 22:32N 51°30' E 000°58'0 0.0
2016-Aug-24 21:26N 51°30' E 000°58'0 0.0
2016-Aug-24 20:32N 51°30' E 000°58'0 0.0
2016-Aug-24 19:32N 51°30' E 000°58'1 1.2
2016-Aug-24 18:33N 51°30' E 000°59'9 9.3
2016-Aug-24 17:33N 51°29' E 001°14'1110.8
2016-Aug-24 16:33N 51°29' E 001°32'1110.6
2016-Aug-24 15:33N 51°29' E 001°49'1010.4
2016-Aug-24 14:33N 51°25' E 002°04'10 9.8
2016-Aug-24 13:33N 51°27' E 002°20'1313.0
2016-Aug-24 12:33N 51°36' E 002°35'1312.8
2016-Aug-24 11:33N 51°44' E 002°51'1312.0
2016-Aug-24 10:26N 51°45' E 003°12'5 5.3
2016-Aug-24 09:33N 51°46' E 003°20'0 0.0
2016-Aug-24 08:32N 51°46' E 003°20'0 0.0
2016-Aug-24 07:33N 51°46' E 003°20'0 0.0
2016-Aug-24 06:27N 51°46' E 003°20'0 0.0
2016-Aug-24 04:30N 51°46' E 003°20'0 0.1
2016-Aug-24 03:32N 51°46' E 003°20'0 0.1
2016-Aug-24 02:33N 51°46' E 003°20'0 0.0
2016-Aug-24 01:29N 51°46' E 003°20'0 0.0
2016-Aug-24 00:30N 51°46' E 003°20'0 0.0
2016-Aug-23 23:33N 51°46' E 003°20'0 0.0
2016-Aug-23 22:33N 51°46' E 003°20'0 0.0
2016-Aug-23 21:06N 51°46' E 003°20'0 0.0
2016-Aug-23 20:26N 51°46' E 003°20'0 0.0
2016-Aug-23 19:18N 51°46' E 003°20'0 0.0
2016-Aug-23 18:09N 51°46' E 003°20'0 0.0
2016-Aug-23 17:21N 51°46' E 003°20'0 0.0
2016-Aug-23 16:26N 51°46' E 003°20'0 0.1
2016-Aug-23 15:09N 51°46' E 003°20'0 0.0
2016-Aug-23 14:26N 51°46' E 003°20'0 0.0
2016-Aug-23 13:30N 51°46' E 003°20'0 0.0
2016-Aug-23 12:26N 51°46' E 003°20'0 0.0
2016-Aug-23 11:20N 51°46' E 003°20'0 0.0
2016-Aug-23 10:33N 51°46' E 003°20'0 0.1
2016-Aug-23 09:29N 51°46' E 003°20'0 0.1
2016-Aug-23 08:33N 51°46' E 003°20'0 0.0
2016-Aug-23 07:33N 51°46' E 003°20'0 0.0
2016-Aug-23 05:29N 51°46' E 003°20'0 0.0
2016-Aug-23 04:29N 51°46' E 003°20'0 0.0
2016-Aug-23 03:32N 51°46' E 003°20'0 0.0
2016-Aug-23 00:32N 51°46' E 003°20'0 0.0
2016-Aug-22 23:33N 51°46' E 003°20'0 0.0
2016-Aug-22 22:32N 51°46' E 003°20'0 0.1
2016-Aug-22 21:29N 51°46' E 003°20'0 0.0
2016-Aug-22 20:32N 51°46' E 003°20'0 0.0
2016-Aug-22 19:29N 51°46' E 003°20'0 0.0
2016-Aug-22 18:32N 51°46' E 003°20'0 0.0
2016-Aug-22 17:29N 51°46' E 003°20'0 0.0
2016-Aug-22 16:29N 51°46' E 003°20'0 0.0
2016-Aug-22 15:26N 51°46' E 003°20'0 0.0
2016-Aug-22 14:23N 51°46' E 003°20'0 0.1
2016-Aug-22 12:26N 51°46' E 003°20'0 0.0
2016-Aug-22 11:26N 51°46' E 003°20'0 0.1
2016-Aug-22 09:26N 51°46' E 003°20'0 0.0
2016-Aug-22 08:23N 51°46' E 003°20'0 0.0
2016-Aug-22 07:32N 51°46' E 003°20'0 0.0
2016-Aug-22 06:26N 51°46' E 003°20'0 0.0
2016-Aug-21 23:29N 51°46' E 003°20'0 0.1
2016-Aug-21 20:20N 51°46' E 003°20'0 0.0
2016-Aug-21 19:32N 51°46' E 003°20'0 0.0
2016-Aug-21 18:26N 51°46' E 003°20'0 0.0
2016-Aug-21 17:32N 51°46' E 003°20'0 0.0
2016-Aug-21 16:18N 51°46' E 003°20'0 0.0
2016-Aug-21 07:30N 51°46' E 003°20'0 0.0
2016-Aug-21 06:24N 51°46' E 003°20'0 0.0
2016-Aug-21 04:33N 51°46' E 003°20'0 0.0
2016-Aug-21 03:32N 51°46' E 003°20'0 0.0
2016-Aug-21 02:32N 51°46' E 003°20'0 0.0
2016-Aug-21 01:34N 51°46' E 003°20'0 0.0
2016-Aug-21 00:33N 51°46' E 003°20'0 0.1
2016-Aug-20 22:31N 51°45' E 003°20'7 6.8
2016-Aug-20 21:33N 51°39' E 003°20'9 9.3
2016-Aug-20 20:33N 51°31' E 003°27'9 9.0
2016-Aug-20 19:33N 51°27' E 003°40'9 8.9
2016-Aug-20 18:33N 51°20' E 003°49'3 3.0
2016-Aug-20 17:32N 51°17' E 003°51'0 0.0
2016-Aug-20 16:32N 51°17' E 003°51'0 0.0
2016-Aug-20 15:32N 51°17' E 003°51'0 0.0
2016-Aug-20 14:32N 51°17' E 003°51'0 0.0
2016-Aug-20 13:32N 51°17' E 003°51'0 0.0
2016-Aug-20 12:32N 51°17' E 003°51'0 0.0
2016-Aug-20 11:32N 51°17' E 003°51'0 0.0
2016-Aug-20 10:32N 51°17' E 003°51'0 0.0
2016-Aug-20 09:32N 51°17' E 003°51'0 0.0
2016-Aug-20 08:32N 51°17' E 003°51'1 1.3
2016-Aug-20 07:34N 51°18' E 003°50'2 2.3
2016-Aug-20 06:33N 51°20' E 003°49'5 5.4
2016-Aug-20 05:33N 51°24' E 003°42'6 6.4
2016-Aug-20 04:33N 51°25' E 003°32'7 7.5
2016-Aug-20 03:33N 51°24' E 003°20'10 9.9
2016-Aug-20 02:33N 51°22' E 003°05'1010.4
2016-Aug-20 01:33N 51°22' E 002°48'5 5.4
2016-Aug-20 00:33N 51°22' E 002°39'6 6.5
2016-Aug-19 23:33N 51°22' E 002°29'8 8.3
2016-Aug-19 22:34N 51°19' E 002°17'8 8.3
2016-Aug-19 21:33N 51°21' E 002°04'8 8.1
2016-Aug-19 20:33N 51°25' E 001°52'8 7.6
2016-Aug-19 19:33N 51°28' E 001°41'10 9.7
2016-Aug-19 18:33N 51°29' E 001°26'1211.5
2016-Aug-19 17:33N 51°29' E 001°07'1211.8
2016-Aug-19 16:33N 51°29' E 000°48'1312.9
2016-Aug-19 15:33N 51°29' E 000°28'9 8.9
2016-Aug-19 14:33N 51°29' E 000°14'8 7.5
2016-Aug-19 13:33N 51°30' E 000°01'0 0.0
2016-Aug-18 13:13N 51°30' E 000°01'4 5.8
2016-Aug-18 12:33N 51°31' E 000°07'10 9.9
2016-Aug-18 11:34N 51°27' E 000°22'9 9.3
2016-Aug-18 10:33N 51°30' E 000°36'1010.2
2016-Aug-18 09:33N 51°30' E 000°52'4 3.1
2016-Aug-18 08:24N 51°30' E 000°58'0 0.0
2016-Aug-18 07:24N 51°30' E 000°58'0 0.1
2016-Aug-18 06:12N 51°30' E 000°58'0 0.0
2016-Aug-18 05:30N 51°30' E 000°58'0 0.0
2016-Aug-18 04:24N 51°30' E 000°58'0 0.0
2016-Aug-18 03:33N 51°30' E 000°58'0 0.0
2016-Aug-18 02:30N 51°30' E 000°58'0 0.0
2016-Aug-18 01:33N 51°30' E 000°58'0 0.1
2016-Aug-18 00:27N 51°30' E 000°58'0 0.0
2016-Aug-17 23:33N 51°30' E 000°58'0 0.0
2016-Aug-17 22:33N 51°30' E 000°58'0 0.0
2016-Aug-17 21:33N 51°30' E 000°58'0 0.0
2016-Aug-17 20:33N 51°30' E 000°58'0 0.0
2016-Aug-17 19:33N 51°30' E 000°58'0 0.0
2016-Aug-17 18:24N 51°30' E 000°58'0 0.1
2016-Aug-17 17:33N 51°30' E 000°58'0 0.0
2016-Aug-17 16:27N 51°30' E 000°58'0 0.0
2016-Aug-17 15:33N 51°30' E 000°58'0 0.0
2016-Aug-17 13:30N 51°30' E 000°58'0 0.1
2016-Aug-17 12:27N 51°30' E 000°58'0 0.0
2016-Aug-17 11:33N 51°30' E 000°58'4 3.6
2016-Aug-17 10:33N 51°30' E 001°03'1312.7
2016-Aug-17 09:33N 51°29' E 001°24'1312.6
2016-Aug-17 08:33N 51°34' E 001°42'1313.0
2016-Aug-17 07:33N 51°41' E 001°60'1312.9
2016-Aug-17 06:33N 51°48' E 002°17'1312.3
2016-Aug-17 05:31N 51°55' E 002°34'1511.3
2016-Aug-17 04:12N 52°01' E 002°56'  
Track history (hours):
 
Tides and Currents Weather Stations Pressure Air Temp Water Temp Dewpoint Dewpoint Depression Visibility Wind Speed Wind Dir Waves Ship Positions

Marten

Last reported at 2016-Aug-27 04:33 UTC. Time now 2016-Aug-27 04:43 UTC.
Position N 51°35' E 001°46'.

Length 90 m; draft 4.9 m.

Type: Ship. MMSI: 212376000.

Date/timePositionNaut miles runAvg speedWind from/ knotsBaromVisibWave heightAir tempDewpointWater temp
2016-Aug-27 04:33N 51°35' E 001°46'7 7.4
2016-Aug-27 03:33N 51°31' E 001°37'8 8.0
2016-Aug-27 02:33N 51°29' E 001°24'9 9.4
2016-Aug-27 01:33N 51°29' E 001°09'1010.2
2016-Aug-27 00:33N 51°29' E 000°53'1111.3
2016-Aug-26 23:33N 51°30' E 000°35'9 9.3
2016-Aug-26 22:33N 51°27' E 000°20'0 0.4
2016-Aug-26 21:33N 51°28' E 000°21'0 0.0
2016-Aug-26 20:33N 51°28' E 000°21'0 0.0
2016-Aug-26 19:34N 51°28' E 000°21'0 0.0
2016-Aug-26 18:33N 51°28' E 000°21'0 0.0
2016-Aug-26 17:33N 51°28' E 000°21'0 0.0
2016-Aug-26 16:34N 51°28' E 000°21'0 0.0
2016-Aug-26 15:34N 51°28' E 000°21'0 0.0
2016-Aug-26 14:33N 51°28' E 000°21'0 0.0
2016-Aug-26 13:34N 51°28' E 000°21'0 0.0
2016-Aug-26 12:34N 51°28' E 000°21'0 0.0
2016-Aug-26 11:33N 51°28' E 000°21'0 0.0
2016-Aug-26 10:34N 51°28' E 000°21'0 0.0
2016-Aug-26 09:33N 51°28' E 000°21'0 0.0
2016-Aug-26 08:33N 51°28' E 000°21'0 0.0
2016-Aug-26 07:34N 51°28' E 000°21'0 0.0
2016-Aug-26 06:33N 51°28' E 000°21'0 0.0
2016-Aug-26 04:33N 51°28' E 000°21'0 0.0
2016-Aug-26 03:33N 51°28' E 000°21'0 0.0
2016-Aug-26 02:33N 51°28' E 000°21'0 0.0
2016-Aug-26 01:33N 51°28' E 000°21'0 0.0
2016-Aug-26 00:33N 51°28' E 000°21'0 0.0
2016-Aug-25 23:34N 51°28' E 000°21'0 0.0
2016-Aug-25 22:33N 51°28' E 000°21'0 0.0
2016-Aug-25 21:33N 51°28' E 000°21'0 0.0
2016-Aug-25 20:33N 51°28' E 000°21'0 0.0
2016-Aug-25 19:33N 51°28' E 000°21'0 0.0
2016-Aug-25 18:33N 51°28' E 000°21'1 0.9
2016-Aug-25 17:33N 51°27' E 000°22'8 7.8
2016-Aug-25 16:33N 51°30' E 000°33'9 8.7
2016-Aug-25 15:33N 51°29' E 000°47'7 6.2
2016-Aug-25 14:29N 51°30' E 000°58'0 0.0
2016-Aug-25 13:32N 51°30' E 000°58'0 0.0
2016-Aug-25 12:32N 51°30' E 000°58'0 0.1
2016-Aug-25 11:32N 51°30' E 000°58'0 0.0
2016-Aug-25 10:32N 51°30' E 000°58'0 0.0
2016-Aug-25 09:32N 51°30' E 000°58'0 0.0
2016-Aug-25 08:32N 51°30' E 000°58'0 0.0
2016-Aug-25 07:32N 51°30' E 000°58'0 0.0
2016-Aug-25 06:32N 51°30' E 000°58'0 0.1
2016-Aug-25 04:32N 51°30' E 000°58'0 0.0
2016-Aug-25 03:32N 51°30' E 000°58'0 0.0
2016-Aug-25 02:32N 51°30' E 000°58'0 0.0
2016-Aug-25 01:32N 51°30' E 000°58'0 0.0
2016-Aug-25 00:32N 51°30' E 000°58'0 0.0
2016-Aug-24 23:29N 51°30' E 000°58'0 0.1
2016-Aug-24 22:32N 51°30' E 000°58'0 0.0
2016-Aug-24 21:26N 51°30' E 000°58'0 0.0
2016-Aug-24 20:32N 51°30' E 000°58'0 0.0
2016-Aug-24 19:32N 51°30' E 000°58'1 1.2
2016-Aug-24 18:33N 51°30' E 000°59'9 9.3
2016-Aug-24 17:33N 51°29' E 001°14'1110.8
2016-Aug-24 16:33N 51°29' E 001°32'1110.6
2016-Aug-24 15:33N 51°29' E 001°49'1010.4
2016-Aug-24 14:33N 51°25' E 002°04'10 9.8
2016-Aug-24 13:33N 51°27' E 002°20'1313.0
2016-Aug-24 12:33N 51°36' E 002°35'1312.8
2016-Aug-24 11:33N 51°44' E 002°51'1312.0
2016-Aug-24 10:26N 51°45' E 003°12'5 5.3
2016-Aug-24 09:33N 51°46' E 003°20'0 0.0
2016-Aug-24 08:32N 51°46' E 003°20'0 0.0
2016-Aug-24 07:33N 51°46' E 003°20'0 0.0
2016-Aug-24 06:27N 51°46' E 003°20'0 0.0
2016-Aug-24 04:30N 51°46' E 003°20'0 0.1
2016-Aug-24 03:32N 51°46' E 003°20'0 0.1
2016-Aug-24 02:33N 51°46' E 003°20'0 0.0
2016-Aug-24 01:29N 51°46' E 003°20'0 0.0
2016-Aug-24 00:30N 51°46' E 003°20'0 0.0
2016-Aug-23 23:33N 51°46' E 003°20'0 0.0
2016-Aug-23 22:33N 51°46' E 003°20'0 0.0
2016-Aug-23 21:06N 51°46' E 003°20'0 0.0
2016-Aug-23 20:26N 51°46' E 003°20'0 0.0
2016-Aug-23 19:18N 51°46' E 003°20'0 0.0
2016-Aug-23 18:09N 51°46' E 003°20'0 0.0
2016-Aug-23 17:21N 51°46' E 003°20'0 0.0
2016-Aug-23 16:26N 51°46' E 003°20'0 0.1
2016-Aug-23 15:09N 51°46' E 003°20'0 0.0
2016-Aug-23 14:26N 51°46' E 003°20'0 0.0
2016-Aug-23 13:30N 51°46' E 003°20'0 0.0
2016-Aug-23 12:26N 51°46' E 003°20'0 0.0
2016-Aug-23 11:20N 51°46' E 003°20'0 0.0
2016-Aug-23 10:33N 51°46' E 003°20'0 0.1
2016-Aug-23 09:29N 51°46' E 003°20'0 0.1
2016-Aug-23 08:33N 51°46' E 003°20'0 0.0
2016-Aug-23 07:33N 51°46' E 003°20'0 0.0
2016-Aug-23 05:29N 51°46' E 003°20'0 0.0
2016-Aug-23 04:29N 51°46' E 003°20'0 0.0
2016-Aug-23 03:32N 51°46' E 003°20'0 0.0
2016-Aug-23 00:32N 51°46' E 003°20'0 0.0
2016-Aug-22 23:33N 51°46' E 003°20'0 0.0
2016-Aug-22 22:32N 51°46' E 003°20'0 0.1
2016-Aug-22 21:29N 51°46' E 003°20'0 0.0
2016-Aug-22 20:32N 51°46' E 003°20'0 0.0
2016-Aug-22 19:29N 51°46' E 003°20'0 0.0
2016-Aug-22 18:32N 51°46' E 003°20'0 0.0
2016-Aug-22 17:29N 51°46' E 003°20'0 0.0
2016-Aug-22 16:29N 51°46' E 003°20'0 0.0
2016-Aug-22 15:26N 51°46' E 003°20'0 0.0
2016-Aug-22 14:23N 51°46' E 003°20'0 0.1
2016-Aug-22 12:26N 51°46' E 003°20'0 0.0
2016-Aug-22 11:26N 51°46' E 003°20'0 0.1
2016-Aug-22 09:26N 51°46' E 003°20'0 0.0
2016-Aug-22 08:23N 51°46' E 003°20'0 0.0
2016-Aug-22 07:32N 51°46' E 003°20'0 0.0
2016-Aug-22 06:26N 51°46' E 003°20'0 0.0
2016-Aug-21 23:29N 51°46' E 003°20'0 0.1
2016-Aug-21 20:20N 51°46' E 003°20'0 0.0
2016-Aug-21 19:32N 51°46' E 003°20'0 0.0
2016-Aug-21 18:26N 51°46' E 003°20'0 0.0
2016-Aug-21 17:32N 51°46' E 003°20'0 0.0
2016-Aug-21 16:18N 51°46' E 003°20'0 0.0
2016-Aug-21 07:30N 51°46' E 003°20'0 0.0
2016-Aug-21 06:24N 51°46' E 003°20'0 0.0
2016-Aug-21 04:33N 51°46' E 003°20'0 0.0
2016-Aug-21 03:32N 51°46' E 003°20'0 0.0
2016-Aug-21 02:32N 51°46' E 003°20'0 0.0
2016-Aug-21 01:34N 51°46' E 003°20'0 0.0
2016-Aug-21 00:33N 51°46' E 003°20'0 0.1
2016-Aug-20 22:31N 51°45' E 003°20'7 6.8
2016-Aug-20 21:33N 51°39' E 003°20'9 9.3
2016-Aug-20 20:33N 51°31' E 003°27'9 9.0
2016-Aug-20 19:33N 51°27' E 003°40'9 8.9
2016-Aug-20 18:33N 51°20' E 003°49'3 3.0
2016-Aug-20 17:32N 51°17' E 003°51'0 0.0
2016-Aug-20 16:32N 51°17' E 003°51'0 0.0
2016-Aug-20 15:32N 51°17' E 003°51'0 0.0
2016-Aug-20 14:32N 51°17' E 003°51'0 0.0
2016-Aug-20 13:32N 51°17' E 003°51'0 0.0
2016-Aug-20 12:32N 51°17' E 003°51'0 0.0
2016-Aug-20 11:32N 51°17' E 003°51'0 0.0
2016-Aug-20 10:32N 51°17' E 003°51'0 0.0
2016-Aug-20 09:32N 51°17' E 003°51'0 0.0
2016-Aug-20 08:32N 51°17' E 003°51'1 1.3
2016-Aug-20 07:34N 51°18' E 003°50'2 2.3
2016-Aug-20 06:33N 51°20' E 003°49'5 5.4
2016-Aug-20 05:33N 51°24' E 003°42'6 6.4
2016-Aug-20 04:33N 51°25' E 003°32'7 7.5
2016-Aug-20 03:33N 51°24' E 003°20'10 9.9
2016-Aug-20 02:33N 51°22' E 003°05'1010.4
2016-Aug-20 01:33N 51°22' E 002°48'5 5.4
2016-Aug-20 00:33N 51°22' E 002°39'6 6.5
2016-Aug-19 23:33N 51°22' E 002°29'8 8.3
2016-Aug-19 22:34N 51°19' E 002°17'8 8.3
2016-Aug-19 21:33N 51°21' E 002°04'8 8.1
2016-Aug-19 20:33N 51°25' E 001°52'8 7.6
2016-Aug-19 19:33N 51°28' E 001°41'10 9.7
2016-Aug-19 18:33N 51°29' E 001°26'1211.5
2016-Aug-19 17:33N 51°29' E 001°07'1211.8
2016-Aug-19 16:33N 51°29' E 000°48'1312.9
2016-Aug-19 15:33N 51°29' E 000°28'9 8.9
2016-Aug-19 14:33N 51°29' E 000°14'8 7.5
2016-Aug-19 13:33N 51°30' E 000°01'0 0.0
2016-Aug-18 13:13N 51°30' E 000°01'4 5.8
2016-Aug-18 12:33N 51°31' E 000°07'10 9.9
2016-Aug-18 11:34N 51°27' E 000°22'9 9.3
2016-Aug-18 10:33N 51°30' E 000°36'1010.2
2016-Aug-18 09:33N 51°30' E 000°52'4 3.1
2016-Aug-18 08:24N 51°30' E 000°58'0 0.0
2016-Aug-18 07:24N 51°30' E 000°58'0 0.1
2016-Aug-18 06:12N 51°30' E 000°58'0 0.0
2016-Aug-18 05:30N 51°30' E 000°58'0 0.0
2016-Aug-18 04:24N 51°30' E 000°58'0 0.0
2016-Aug-18 03:33N 51°30' E 000°58'0 0.0
2016-Aug-18 02:30N 51°30' E 000°58'0 0.0
2016-Aug-18 01:33N 51°30' E 000°58'0 0.1
2016-Aug-18 00:27N 51°30' E 000°58'0 0.0
2016-Aug-17 23:33N 51°30' E 000°58'0 0.0
2016-Aug-17 22:33N 51°30' E 000°58'0 0.0
2016-Aug-17 21:33N 51°30' E 000°58'0 0.0
2016-Aug-17 20:33N 51°30' E 000°58'0 0.0
2016-Aug-17 19:33N 51°30' E 000°58'0 0.0
2016-Aug-17 18:24N 51°30' E 000°58'0 0.1
2016-Aug-17 17:33N 51°30' E 000°58'0 0.0
2016-Aug-17 16:27N 51°30' E 000°58'0 0.0
2016-Aug-17 15:33N 51°30' E 000°58'0 0.0
2016-Aug-17 13:30N 51°30' E 000°58'0 0.1
2016-Aug-17 12:27N 51°30' E 000°58'0 0.0
2016-Aug-17 11:33N 51°30' E 000°58'4 3.6
2016-Aug-17 10:33N 51°30' E 001°03'1312.7
2016-Aug-17 09:33N 51°29' E 001°24'1312.6
2016-Aug-17 08:33N 51°34' E 001°42'1313.0
2016-Aug-17 07:33N 51°41' E 001°60'1312.9
2016-Aug-17 06:33N 51°48' E 002°17'1312.3
2016-Aug-17 05:31N 51°55' E 002°34'1511.3
2016-Aug-17 04:12N 52°01' E 002°56'  

Dump ship's entire track history